createdAt,value
2022-08-11T00:01:17.484Z,9.60
2022-08-11T00:03:48.712Z,8.95
2022-08-11T00:06:24.140Z,8.85
2022-08-11T00:08:51.758Z,9.10
2022-08-11T00:11:19.877Z,8.85
2022-08-11T00:13:49.895Z,8.88
2022-08-11T00:16:16.688Z,9.23
2022-08-11T00:18:46.865Z,8.80
2022-08-11T00:21:15.007Z,8.50
2022-08-11T00:23:47.813Z,8.57
2022-08-11T00:26:16.786Z,9.63
2022-08-11T00:28:43.711Z,8.60
2022-08-11T00:31:23.244Z,8.68
2022-08-11T00:33:51.670Z,8.50
2022-08-11T00:36:25.292Z,8.90
2022-08-11T00:38:53.833Z,8.52
2022-08-11T00:41:39.326Z,8.98
2022-08-11T00:44:43.762Z,8.65
2022-08-11T00:47:38.991Z,9.20
2022-08-11T00:50:26.687Z,8.77
2022-08-11T00:53:15.307Z,9.07
2022-08-11T00:56:17.018Z,11.85
2022-08-11T00:59:34.495Z,9.50
2022-08-11T01:02:11.211Z,9.55
2022-08-11T01:05:13.484Z,8.90
2022-08-11T01:08:01.582Z,9.45
2022-08-11T01:11:03.838Z,9.63
2022-08-11T01:13:43.168Z,13.68
2022-08-11T01:16:31.155Z,9.32
2022-08-11T01:19:19.846Z,10.00
2022-08-11T01:22:08.269Z,9.13
2022-08-11T01:24:50.223Z,9.65
2022-08-11T01:27:41.848Z,9.60
2022-08-11T01:30:52.314Z,9.13
2022-08-11T01:33:59.525Z,9.43
2022-08-11T01:36:56.589Z,9.52
2022-08-11T01:39:45.614Z,9.60
2022-08-11T01:42:37.295Z,9.10
2022-08-11T01:45:29.344Z,9.43
2022-08-11T01:48:20.967Z,9.43
2022-08-11T01:51:17.617Z,8.95
2022-08-11T01:54:11.985Z,9.55
2022-08-11T01:57:10.131Z,9.43
2022-08-11T02:00:02.551Z,9.82
2022-08-11T02:02:56.999Z,9.38
2022-08-11T02:05:45.829Z,9.35
2022-08-11T02:08:33.290Z,9.68
2022-08-11T02:11:35.614Z,9.30
2022-08-11T02:14:28.680Z,9.27
2022-08-11T02:17:34.658Z,9.23
2022-08-11T02:20:43.344Z,9.25
2022-08-11T02:24:04.975Z,10.32
2022-08-11T02:26:41.292Z,10.20
2022-08-11T02:29:37.777Z,10.07
2022-08-11T02:32:30.303Z,9.80
2022-08-11T02:35:20.026Z,9.68
2022-08-11T02:38:11.465Z,9.25
2022-08-11T02:41:01.089Z,9.70
2022-08-11T02:43:52.790Z,9.80
2022-08-11T02:46:32.743Z,10.52
2022-08-11T02:49:30.984Z,9.23
2022-08-11T02:52:34.289Z,10.60
2022-08-11T02:55:56.259Z,10.10
2022-08-11T02:58:29.096Z,10.40
2022-08-11T03:01:24.514Z,10.90
2022-08-11T03:04:00.592Z,10.50
2022-08-11T03:06:35.603Z,9.63
2022-08-11T03:09:19.106Z,10.65
2022-08-11T03:12:37.268Z,10.10
2022-08-11T03:15:37.412Z,10.48
2022-08-11T03:18:33.094Z,10.95
2022-08-11T03:21:15.873Z,10.70
2022-08-11T03:24:05.026Z,11.00
2022-08-11T03:27:13.250Z,10.98
2022-08-11T03:30:01.570Z,10.20
2022-08-11T03:32:42.298Z,11.68
2022-08-11T03:35:11.476Z,10.43
2022-08-11T03:38:02.776Z,10.77
2022-08-11T03:42:03.453Z,11.82
2022-08-11T03:44:34.347Z,11.00
2022-08-11T03:47:15.214Z,10.30
2022-08-11T03:52:42.185Z,11.30
2022-08-11T03:55:12.324Z,10.45
2022-08-11T03:58:16.921Z,11.77
2022-08-11T04:01:11.362Z,10.43
2022-08-11T04:04:03.271Z,10.57
2022-08-11T04:06:48.996Z,10.35
2022-08-11T04:09:24.988Z,12.32
2022-08-11T04:12:36.501Z,11.18
2022-08-11T04:15:50.678Z,10.32
2022-08-11T04:18:36.102Z,9.88
2022-08-11T04:21:03.146Z,10.60
2022-08-11T04:24:36.062Z,10.43
2022-08-11T04:26:56.608Z,10.10
2022-08-11T04:30:03.269Z,10.48
2022-08-11T04:32:56.193Z,10.48
2022-08-11T04:35:48.638Z,9.80
2022-08-11T04:38:36.740Z,10.98
2022-08-11T04:42:13.216Z,9.68
2022-08-11T04:45:12.048Z,9.80
2022-08-11T04:48:16.673Z,9.55
2022-08-11T04:51:33.139Z,10.07
2022-08-11T04:54:45.651Z,11.05
2022-08-11T04:57:45.823Z,10.43
2022-08-11T05:00:32.778Z,12.23
2022-08-11T05:03:08.404Z,10.25
2022-08-11T05:06:14.737Z,13.75
2022-08-11T05:09:03.045Z,9.82
2022-08-11T05:11:45.175Z,11.75
2022-08-11T05:14:30.319Z,10.50
2022-08-11T05:17:18.836Z,10.55
2022-08-11T05:20:07.628Z,11.02
2022-08-11T05:22:55.175Z,12.23
2022-08-11T05:26:44.984Z,11.80
2022-08-11T05:29:20.283Z,10.75
2022-08-11T05:32:15.443Z,11.07
2022-08-11T05:34:59.776Z,11.38
2022-08-11T05:37:29.617Z,10.98
2022-08-11T05:40:26.815Z,16.90
2022-08-11T05:43:24.064Z,10.77
2022-08-11T05:46:21.138Z,12.27
2022-08-11T05:49:07.751Z,12.45
2022-08-11T05:51:57.073Z,12.10
2022-08-11T05:54:46.648Z,11.63
2022-08-11T05:57:48.986Z,13.25
2022-08-11T06:00:12.403Z,12.82
2022-08-11T06:07:49.139Z,10.93
2022-08-11T06:10:47.040Z,10.98
2022-08-11T06:13:18.256Z,12.77
2022-08-11T06:15:47.937Z,13.93
2022-08-11T06:18:16.082Z,11.98
2022-08-11T06:20:56.749Z,13.82
2022-08-11T06:23:25.896Z,11.00
2022-08-11T06:25:56.312Z,11.80
2022-08-11T06:31:02.479Z,10.60
2022-08-11T06:33:45.290Z,12.02
2022-08-11T06:36:30.938Z,10.50
2022-08-11T06:39:20.497Z,15.75
2022-08-11T06:41:53.467Z,13.95
2022-08-11T06:44:40.268Z,11.68
2022-08-11T06:47:12.809Z,11.18
2022-08-11T06:50:06.511Z,11.48
2022-08-11T06:52:36.982Z,12.35
2022-08-11T06:55:57.812Z,9.90
2022-08-11T06:58:54.070Z,10.45
2022-08-11T07:01:55.912Z,9.82
2022-08-11T07:04:43.382Z,10.43
2022-08-11T07:07:50.175Z,10.48
2022-08-11T07:10:57.223Z,10.20
2022-08-11T07:13:45.901Z,10.45
2022-08-11T07:16:24.360Z,10.05
2022-08-11T07:22:04.714Z,10.27
2022-08-11T07:25:21.814Z,10.98
2022-08-11T07:28:15.011Z,13.90
2022-08-11T07:30:42.647Z,11.40
2022-08-11T07:33:21.120Z,13.38
2022-08-11T07:36:01.062Z,10.93
2022-08-11T07:38:47.195Z,10.57
2022-08-11T07:41:16.679Z,10.90
2022-08-11T07:43:49.131Z,15.30
2022-08-11T07:46:36.134Z,10.18
2022-08-11T07:49:24.302Z,11.73
2022-08-11T07:52:10.964Z,10.93
2022-08-11T07:54:39.446Z,14.48
2022-08-11T07:57:50.116Z,12.55
2022-08-11T08:00:38.085Z,12.00
2022-08-11T08:03:25.649Z,10.30
2022-08-11T08:06:35.545Z,10.13
2022-08-11T08:09:17.873Z,10.65
2022-08-11T08:12:05.267Z,10.32
2022-08-11T08:14:51.954Z,10.73
2022-08-11T08:17:40.140Z,11.73
2022-08-11T08:20:11.459Z,10.23
2022-08-11T08:22:40.139Z,10.40
2022-08-11T08:25:09.918Z,10.07
2022-08-11T08:27:38.615Z,10.15
2022-08-11T08:30:25.862Z,9.98
2022-08-11T08:32:53.653Z,9.45
2022-08-11T08:35:21.821Z,10.02
2022-08-11T08:37:51.330Z,10.15
2022-08-11T08:40:18.894Z,9.70
2022-08-11T08:43:02.597Z,11.95
2022-08-11T08:45:34.249Z,10.35
2022-08-11T08:48:10.983Z,9.70
2022-08-11T08:51:02.946Z,9.43
2022-08-11T08:53:35.091Z,9.63
2022-08-11T08:56:03.150Z,9.57
2022-08-11T08:58:31.162Z,8.98
2022-08-11T09:01:01.890Z,11.75
2022-08-11T09:03:41.861Z,9.93
2022-08-11T09:06:17.234Z,8.77
2022-08-11T09:08:45.528Z,11.85
2022-08-11T09:11:33.306Z,8.75
2022-08-11T09:14:05.639Z,8.10
2022-08-11T09:16:34.631Z,9.10
2022-08-11T09:19:02.304Z,8.77
2022-08-11T09:21:39.765Z,7.82
2022-08-11T09:24:34.322Z,8.48
2022-08-11T09:27:08.327Z,8.32
2022-08-11T09:29:37.913Z,8.95
2022-08-11T09:32:07.106Z,10.27
2022-08-11T09:34:36.636Z,9.55
2022-08-11T09:37:29.035Z,10.65
2022-08-11T09:40:29.442Z,8.85
2022-08-11T09:43:36.731Z,9.23
2022-08-11T09:46:05.439Z,7.78
2022-08-11T09:48:38.558Z,7.53
2022-08-11T09:51:08.097Z,8.85
2022-08-11T09:53:41.552Z,7.37
2022-08-11T09:56:35.893Z,8.32
2022-08-11T09:59:04.563Z,8.27
2022-08-11T10:01:35.962Z,7.97
2022-08-11T10:04:18.736Z,8.57
2022-08-11T10:07:10.493Z,8.30
2022-08-11T10:09:45.739Z,8.40
2022-08-11T10:12:27.181Z,8.10
2022-08-11T10:15:39.590Z,10.38
2022-08-11T10:18:42.299Z,9.73
2022-08-11T10:21:35.976Z,7.32
2022-08-11T10:24:23.532Z,8.25
2022-08-11T10:26:55.693Z,8.52
2022-08-11T10:29:49.813Z,8.25
2022-08-11T10:32:57.493Z,7.60
2022-08-11T10:35:27.714Z,7.65
2022-08-11T10:38:06.060Z,7.90
2022-08-11T10:40:46.856Z,7.80
2022-08-11T10:44:01.896Z,9.77
2022-08-11T10:46:30.000Z,7.70
2022-08-11T10:48:58.274Z,8.05
2022-08-11T10:51:51.203Z,8.15
2022-08-11T10:54:39.369Z,9.98
2022-08-11T10:57:25.109Z,7.38
2022-08-11T10:59:56.073Z,7.05
2022-08-11T11:02:23.796Z,6.97
2022-08-11T11:04:59.527Z,8.68
2022-08-11T11:08:38.768Z,6.97
2022-08-11T11:11:07.838Z,7.13
2022-08-11T11:13:55.570Z,7.38
2022-08-11T11:16:28.240Z,6.78
2022-08-11T11:19:00.691Z,7.00
2022-08-11T11:21:28.665Z,6.72
2022-08-11T11:24:17.511Z,7.25
2022-08-11T11:26:50.362Z,7.00
2022-08-11T11:29:25.228Z,7.40
2022-08-11T11:32:27.778Z,7.13
2022-08-11T11:35:15.659Z,6.90
2022-08-11T11:37:58.502Z,7.20
2022-08-11T11:40:32.874Z,7.57
2022-08-11T11:43:01.049Z,8.75
2022-08-11T11:45:28.446Z,7.22
2022-08-11T11:47:59.036Z,7.05
2022-08-11T11:50:37.175Z,8.35
2022-08-11T11:53:09.950Z,7.57
2022-08-11T11:55:37.959Z,7.70
2022-08-11T11:58:25.054Z,7.18
2022-08-11T12:01:12.297Z,7.38
2022-08-11T12:03:40.297Z,6.32
2022-08-11T12:06:09.362Z,7.07
2022-08-11T12:08:37.557Z,7.15
2022-08-11T12:11:27.509Z,6.80
2022-08-11T12:13:59.070Z,7.15
2022-08-11T12:16:35.327Z,6.72
2022-08-11T12:19:05.865Z,6.55
2022-08-11T12:21:34.327Z,6.53
2022-08-11T12:24:21.358Z,7.10
2022-08-11T12:27:01.426Z,7.03
2022-08-11T12:29:41.117Z,6.70
2022-08-11T12:32:12.559Z,6.90
2022-08-11T12:34:39.440Z,7.07
2022-08-11T12:37:13.003Z,6.70
2022-08-11T12:40:16.752Z,6.10
2022-08-11T12:43:21.117Z,7.05
2022-08-11T12:45:58.429Z,7.75
2022-08-11T12:49:00.343Z,6.43
2022-08-11T12:52:06.743Z,6.65
2022-08-11T12:55:02.937Z,6.70
2022-08-11T12:57:57.744Z,6.85
2022-08-11T13:00:45.200Z,6.53
2022-08-11T13:03:33.041Z,6.28
2022-08-11T13:06:04.705Z,6.95
2022-08-11T13:08:35.642Z,10.13
2022-08-11T13:11:23.280Z,6.65
2022-08-11T13:13:57.014Z,7.53
2022-08-11T13:16:56.680Z,11.07
2022-08-11T13:19:24.142Z,10.15
2022-08-11T13:21:52.944Z,7.22
2022-08-11T13:24:21.693Z,7.10
2022-08-11T13:26:50.581Z,6.53
2022-08-11T13:29:22.718Z,6.03
2022-08-11T13:31:51.400Z,6.43
2022-08-11T13:34:20.465Z,6.82
2022-08-11T13:36:54.258Z,6.38
2022-08-11T13:39:24.544Z,6.28
2022-08-11T13:41:57.153Z,7.22
2022-08-11T13:44:27.503Z,7.35
2022-08-11T13:47:06.666Z,6.03
2022-08-11T13:49:40.208Z,7.17
2022-08-11T13:52:14.592Z,6.47
2022-08-11T13:54:43.076Z,6.50
2022-08-11T13:57:13.692Z,6.22
2022-08-11T14:00:09.680Z,6.60
2022-08-11T14:02:42.831Z,6.13
2022-08-11T14:05:16.075Z,6.60
2022-08-11T14:07:52.676Z,6.32
2022-08-11T14:10:28.858Z,5.43
2022-08-11T14:13:19.939Z,7.97
2022-08-11T14:15:49.196Z,5.80
2022-08-11T14:18:22.776Z,6.47
2022-08-11T14:21:12.824Z,7.20
2022-08-11T14:23:42.429Z,6.03
2022-08-11T14:26:27.132Z,5.30
2022-08-11T14:28:59.368Z,6.63
2022-08-11T14:31:28.499Z,5.47
2022-08-11T14:34:00.287Z,6.40
2022-08-11T14:36:36.028Z,7.55
2022-08-11T14:39:13.506Z,6.00
2022-08-11T14:42:12.666Z,6.40
2022-08-11T14:45:06.526Z,7.10
2022-08-11T14:47:40.448Z,6.90
2022-08-11T14:50:14.125Z,6.10
2022-08-11T14:53:01.601Z,5.85
2022-08-11T14:55:50.102Z,5.38
2022-08-11T14:58:20.453Z,6.32
2022-08-11T15:00:50.785Z,7.85
2022-08-11T15:03:18.071Z,8.30
2022-08-11T15:05:54.218Z,6.47
2022-08-11T15:08:48.834Z,6.20
2022-08-11T15:11:36.477Z,7.07
2022-08-11T15:14:06.071Z,7.15
2022-08-11T15:16:51.890Z,5.80
2022-08-11T15:19:21.275Z,6.18
2022-08-11T15:22:08.398Z,7.60
2022-08-11T15:24:36.587Z,6.10
2022-08-11T15:27:33.329Z,7.10
2022-08-11T15:30:33.535Z,6.53
2022-08-11T15:33:25.614Z,5.50
2022-08-11T15:36:12.826Z,6.30
2022-08-11T15:38:49.210Z,6.50
2022-08-11T15:41:58.861Z,8.73
2022-08-11T15:45:04.874Z,8.25
2022-08-11T15:48:00.671Z,6.40
2022-08-11T15:50:38.106Z,6.22
2022-08-11T15:53:11.923Z,6.97
2022-08-11T15:55:39.729Z,5.88
2022-08-11T15:58:35.849Z,6.18
2022-08-11T16:01:23.233Z,6.78
2022-08-11T16:04:13.141Z,6.13
2022-08-11T16:06:49.900Z,7.82
2022-08-11T16:09:21.952Z,6.47
2022-08-11T16:11:51.383Z,7.72
2022-08-11T16:14:38.790Z,6.72
2022-08-11T16:17:09.169Z,6.15
2022-08-11T16:19:37.728Z,6.18
2022-08-11T16:22:10.171Z,6.40
2022-08-11T16:27:03.002Z,8.13
2022-08-11T16:27:40.302Z,5.80
2022-08-11T16:30:08.792Z,5.38
2022-08-11T16:32:39.547Z,5.78
2022-08-11T16:35:39.628Z,6.88
2022-08-11T16:38:27.013Z,7.13
2022-08-11T16:40:56.412Z,8.25
2022-08-11T16:43:44.749Z,8.05
2022-08-11T16:46:32.535Z,7.47
2022-08-11T16:49:03.271Z,6.65
2022-08-11T16:51:31.814Z,6.50
2022-08-11T16:54:04.768Z,5.40
2022-08-11T16:56:47.973Z,5.72
2022-08-11T16:59:33.669Z,6.05
2022-08-11T17:02:08.145Z,8.70
2022-08-11T17:05:08.736Z,7.40
2022-08-11T17:07:58.035Z,6.40
2022-08-11T17:10:54.790Z,6.00
2022-08-11T17:13:31.822Z,6.13
2022-08-11T17:16:08.972Z,7.72
2022-08-11T17:18:51.208Z,8.40
2022-08-11T17:21:23.993Z,7.30
2022-08-11T17:23:55.436Z,6.85
2022-08-11T17:26:52.101Z,7.20
2022-08-11T17:29:28.776Z,6.68
2022-08-11T17:32:15.805Z,7.25
2022-08-11T17:35:03.184Z,7.72
2022-08-11T17:37:33.100Z,9.40
2022-08-11T17:40:05.118Z,9.20
2022-08-11T17:42:51.677Z,8.50
2022-08-11T17:45:39.346Z,10.13
2022-08-11T17:48:25.621Z,8.60
2022-08-11T17:51:05.259Z,9.02
2022-08-11T17:54:10.240Z,7.78
2022-08-11T17:57:01.591Z,8.45
2022-08-11T17:59:49.186Z,8.55
2022-08-11T18:02:44.789Z,8.38
2022-08-11T18:05:13.746Z,7.75
2022-08-11T18:08:04.486Z,8.27
2022-08-11T18:10:51.668Z,9.18
2022-08-11T18:13:40.775Z,11.15
2022-08-11T18:16:28.058Z,10.10
2022-08-11T18:19:14.232Z,10.13
2022-08-11T18:22:14.906Z,9.00
2022-08-11T18:25:27.177Z,10.02
2022-08-11T18:28:14.972Z,9.80
2022-08-11T18:31:04.369Z,9.27
2022-08-11T18:34:13.521Z,8.15
2022-08-11T18:37:29.332Z,9.23
2022-08-11T18:40:24.358Z,8.88
2022-08-11T18:43:13.889Z,9.80
2022-08-11T18:46:06.423Z,12.07
2022-08-11T18:48:56.153Z,12.63
2022-08-11T18:51:43.776Z,11.45
2022-08-11T18:54:31.326Z,9.65
2022-08-11T18:57:20.771Z,10.63
2022-08-11T19:00:07.797Z,9.13
2022-08-11T19:02:57.374Z,10.00
2022-08-11T19:06:06.051Z,9.27
2022-08-11T19:08:56.271Z,9.55
2022-08-11T19:11:43.906Z,10.15
2022-08-11T19:14:33.366Z,8.68
2022-08-11T19:17:44.425Z,9.02
2022-08-11T19:20:33.535Z,14.05
2022-08-11T19:23:21.412Z,12.18
2022-08-11T19:26:07.871Z,11.52
2022-08-11T19:28:55.916Z,9.85
2022-08-11T19:31:44.814Z,9.65
2022-08-11T19:34:37.445Z,11.02
2022-08-11T19:37:25.554Z,9.10
2022-08-11T19:40:32.876Z,8.88
2022-08-11T19:43:25.994Z,9.63
2022-08-11T19:46:15.083Z,9.23
2022-08-11T19:49:03.695Z,8.80
2022-08-11T19:51:53.446Z,9.35
2022-08-11T19:57:27.763Z,9.00
2022-08-11T20:00:13.641Z,8.73
2022-08-11T20:02:59.353Z,9.65
2022-08-11T20:05:55.491Z,10.13
2022-08-11T20:08:48.015Z,8.98
2022-08-11T20:11:35.893Z,8.45
2022-08-11T20:14:22.793Z,8.93
2022-08-11T20:17:10.564Z,8.77
2022-08-11T20:22:50.113Z,11.55
2022-08-11T20:25:37.929Z,8.90
2022-08-11T20:28:25.141Z,9.18
2022-08-11T20:31:12.647Z,10.00
2022-08-11T20:33:59.501Z,9.65
2022-08-11T20:36:54.101Z,8.55
2022-08-11T20:39:43.063Z,9.88
2022-08-11T20:42:30.941Z,8.80
2022-08-11T20:45:23.929Z,8.82
2022-08-11T20:48:14.650Z,8.68
2022-08-11T20:51:06.377Z,8.65
2022-08-11T20:53:56.098Z,8.73
2022-08-11T20:56:43.120Z,9.05
2022-08-11T20:59:33.386Z,9.25
2022-08-11T21:02:35.658Z,8.63
2022-08-11T21:06:09.030Z,8.82
2022-08-11T21:08:27.624Z,8.60
2022-08-11T21:11:14.133Z,9.02
2022-08-11T21:14:13.683Z,9.18
2022-08-11T21:17:26.919Z,9.23
2022-08-11T21:20:13.099Z,9.57
2022-08-11T21:23:35.052Z,9.10
2022-08-11T21:26:26.884Z,9.25
2022-08-11T21:29:16.639Z,9.20
2022-08-11T21:32:03.261Z,9.00
2022-08-11T21:34:51.066Z,9.25
2022-08-11T21:37:37.950Z,9.65
2022-08-11T21:40:25.581Z,9.80
2022-08-11T21:43:12.701Z,9.00
2022-08-11T21:45:59.673Z,9.07
2022-08-11T21:48:46.078Z,9.13
2022-08-11T21:51:31.594Z,9.55
2022-08-11T21:54:19.595Z,9.80
2022-08-11T21:57:06.363Z,9.25
2022-08-11T22:00:10.384Z,9.40
2022-08-11T22:02:57.170Z,9.60
2022-08-11T22:05:44.759Z,9.80
2022-08-11T22:08:31.594Z,9.48
2022-08-11T22:11:32.446Z,9.23
2022-08-11T22:14:19.777Z,10.05
2022-08-11T22:17:05.132Z,10.20
2022-08-11T22:19:51.107Z,10.70
2022-08-11T22:22:51.265Z,9.77
2022-08-11T22:25:51.045Z,9.80
2022-08-11T22:28:40.968Z,9.63
2022-08-11T22:31:27.651Z,9.60
2022-08-11T22:34:13.622Z,9.70
2022-08-11T22:37:01.288Z,9.70
2022-08-11T22:40:01.691Z,9.63
2022-08-11T22:42:52.479Z,10.05
2022-08-11T22:45:38.697Z,9.65
2022-08-11T22:48:26.563Z,9.63
2022-08-11T22:51:13.709Z,9.73
2022-08-11T22:54:00.241Z,9.60
2022-08-11T22:56:48.376Z,10.18
2022-08-11T22:59:36.184Z,10.18
2022-08-11T23:02:24.238Z,10.07
2022-08-11T23:05:10.770Z,10.27
2022-08-11T23:07:57.946Z,10.15
2022-08-11T23:10:44.382Z,10.40
2022-08-11T23:13:29.884Z,10.43
2022-08-11T23:16:15.462Z,10.32
2022-08-11T23:19:01.782Z,10.73
2022-08-11T23:21:48.372Z,11.05
2022-08-11T23:24:35.346Z,10.25
2022-08-11T23:27:21.629Z,10.25
2022-08-11T23:30:11.308Z,11.30
2022-08-11T23:32:59.173Z,10.20
2022-08-11T23:35:51.935Z,10.93
2022-08-11T23:38:40.723Z,10.98
2022-08-11T23:41:26.234Z,10.93
2022-08-11T23:44:13.099Z,10.90
2022-08-11T23:47:00.013Z,10.65
2022-08-11T23:49:46.694Z,11.77
2022-08-11T23:52:33.494Z,11.05
2022-08-11T23:55:19.150Z,11.45
2022-08-11T23:58:04.698Z,12.82
